Aérodrome :
LOGIN :

S'inscrire | Disclaimer

   EN    FR    IT 

 










Légende :    VFR   VFR Marginal   IFR   IFR Intensif   IFR Très Intensif
Visi : 
Plafond : 
>= 8 km
>= 3000ft
5 à 8 km
1000 à 3000 ft
1500m à 5 km
500 à 1000 ft
800 à 1500m
200 à 500 ft
< 800m
< 200 ft
Symboles :   Orages  Brouillard  Fortes neiges  Fortes précipitations  Vent > 20 kt
SIGMETs :   Divers  Orages  Givrage  Turbulence  Onde Orograph.  Cendres Volcan.






- Altitude de l'aérodrome : 297 ft


EGVP - Middle Wallop

DERNIER METAR :
  • 190450Z 33003KT 7000 MIFG BR FEW050 14/13 Q1017 RMK WHT

METARs EXPIRÉS :
  • 190420Z AUTO 31003KT 4100 BR NCD 13/12 Q1018
  • 190350Z AUTO 00000KT 9999 NCD 14/13 Q1018
  • 190320Z AUTO 08003KT 8000 FEW052/// 14/13 Q1018
  • 190250Z AUTO 05002KT 9999 NCD 15/14 Q1018
  • 190220Z AUTO 01002KT 9999 NCD 14/13 Q1018
  • 190150Z AUTO 32003KT 5000 BR NCD 14/12 Q1018
  • 190120Z AUTO 01002KT 9999 NCD 15/13 Q1019
  • 190050Z 08002KT CAVOK 16/14 Q1019 NOSIG RMK BLU BLU
  • 190020Z 00000KT CAVOK 16/14 Q1019 NOSIG RMK BLU BLU

Prévision TAF périmée.
ATIS : +44 1980 674 142



MET'MAP, la Météo Aéronautique d'un coup d'oeil ! - Copyright ORBIFLY Décembre 2007 - Disclaimer

ORBIFLY MET'MAP TEAM :

Programmation & Développement : Alexandra Zaïnal
Sur une idée originale de : Baudouin d'Aumeries
Soutien technique & logistique : Manuel Goepfert
Assistance : Marc-Olivier Méhu




SOURCES & CREDITS :

   NOAA